sensor_id;sensor_type;location;lat;lon;timestamp;pressure;altitude;pressure_sealevel;temperature;humidity
42603;BME280;28233;55.748;48.752;2024-02-26T00:00:44;101450.41;;;-9.28;58.24
42603;BME280;28233;55.748;48.752;2024-02-26T00:02:49;101451.94;;;-9.26;58.04
42603;BME280;28233;55.748;48.752;2024-02-26T00:04:51;101458.09;;;-9.25;57.93
42603;BME280;28233;55.748;48.752;2024-02-26T00:06:54;101451.63;;;-9.23;58.14
42603;BME280;28233;55.748;48.752;2024-02-26T00:08:58;101445.63;;;-9.25;58.32
42603;BME280;28233;55.748;48.752;2024-02-26T00:11:01;101456.00;;;-9.22;58.11
42603;BME280;28233;55.748;48.752;2024-02-26T00:13:04;101458.50;;;-9.20;57.78
42603;BME280;28233;55.748;48.752;2024-02-26T00:15:08;101460.03;;;-9.18;57.83
42603;BME280;28233;55.748;48.752;2024-02-26T00:17:11;101456.22;;;-9.15;57.61
42603;BME280;28233;55.748;48.752;2024-02-26T00:19:13;101456.41;;;-9.17;57.46
42603;BME280;28233;55.748;48.752;2024-02-26T00:21:16;101462.69;;;-9.18;57.45
42603;BME280;28233;55.748;48.752;2024-02-26T00:23:19;101458.50;;;-9.20;56.86
42603;BME280;28233;55.748;48.752;2024-02-26T00:25:22;101464.81;;;-9.21;56.92
42603;BME280;28233;55.748;48.752;2024-02-26T00:27:24;101444.38;;;-9.30;57.38
42603;BME280;28233;55.748;48.752;2024-02-26T00:29:27;101478.41;;;-9.24;57.02
42603;BME280;28233;55.748;48.752;2024-02-26T00:31:30;101468.88;;;-9.27;56.84
42603;BME280;28233;55.748;48.752;2024-02-26T00:33:32;101473.66;;;-9.30;56.75
42603;BME280;28233;55.748;48.752;2024-02-26T00:35:35;101486.97;;;-9.30;56.81
42603;BME280;28233;55.748;48.752;2024-02-26T00:37:38;101460.38;;;-9.40;56.52
42603;BME280;28233;55.748;48.752;2024-02-26T00:39:40;101468.22;;;-9.39;57.17
42603;BME280;28233;55.748;48.752;2024-02-26T00:41:43;101467.81;;;-9.44;57.14
42603;BME280;28233;55.748;48.752;2024-02-26T00:43:46;101481.53;;;-9.39;57.51
42603;BME280;28233;55.748;48.752;2024-02-26T00:45:49;101481.13;;;-9.44;58.04
42603;BME280;28233;55.748;48.752;2024-02-26T00:47:51;101495.25;;;-9.43;57.84
42603;BME280;28233;55.748;48.752;2024-02-26T00:49:54;101492.75;;;-9.45;57.70
42603;BME280;28233;55.748;48.752;2024-02-26T00:51:57;101492.88;;;-9.46;57.96
42603;BME280;28233;55.748;48.752;2024-02-26T00:54:00;101489.69;;;-9.50;57.46
42603;BME280;28233;55.748;48.752;2024-02-26T00:56:03;101494.72;;;-9.47;57.15
42603;BME280;28233;55.748;48.752;2024-02-26T00:58:05;101496.69;;;-9.49;57.61
42603;BME280;28233;55.748;48.752;2024-02-26T01:00:08;101498.63;;;-9.51;57.02
42603;BME280;28233;55.748;48.752;2024-02-26T01:02:11;101502.56;;;-9.55;56.00
42603;BME280;28233;55.748;48.752;2024-02-26T01:04:13;101503.41;;;-9.54;57.06
42603;BME280;28233;55.748;48.752;2024-02-26T01:06:16;101502.72;;;-9.57;56.77
42603;BME280;28233;55.748;48.752;2024-02-26T01:08:19;101497.53;;;-9.58;57.48
42603;BME280;28233;55.748;48.752;2024-02-26T01:10:21;101509.28;;;-9.61;57.45
42603;BME280;28233;55.748;48.752;2024-02-26T01:12:24;101505.81;;;-9.61;57.89
42603;BME280;28233;55.748;48.752;2024-02-26T01:14:26;101491.50;;;-9.70;57.66
42603;BME280;28233;55.748;48.752;2024-02-26T01:16:29;101497.25;;;-9.65;58.44
42603;BME280;28233;55.748;48.752;2024-02-26T01:18:33;101500.06;;;-9.66;58.26
42603;BME280;28233;55.748;48.752;2024-02-26T01:20:36;101494.03;;;-9.68;57.10
42603;BME280;28233;55.748;48.752;2024-02-26T01:22:39;101488.72;;;-9.68;58.47
42603;BME280;28233;55.748;48.752;2024-02-26T01:24:43;101493.19;;;-9.69;58.06
42603;BME280;28233;55.748;48.752;2024-02-26T01:26:45;101494.03;;;-9.68;58.58
42603;BME280;28233;55.748;48.752;2024-02-26T01:28:48;101497.53;;;-9.68;57.98
42603;BME280;28233;55.748;48.752;2024-02-26T01:30:51;101495.16;;;-9.71;57.85
42603;BME280;28233;55.748;48.752;2024-02-26T01:32:53;101494.31;;;-9.71;56.60
42603;BME280;28233;55.748;48.752;2024-02-26T01:34:56;101484.38;;;-9.69;57.53
42603;BME280;28233;55.748;48.752;2024-02-26T01:37:00;101490.69;;;-9.70;57.25
42603;BME280;28233;55.748;48.752;2024-02-26T01:39:03;101478.34;;;-9.71;57.87
42603;BME280;28233;55.748;48.752;2024-02-26T01:41:06;101488.03;;;-9.70;57.85
42603;BME280;28233;55.748;48.752;2024-02-26T01:43:09;101487.72;;;-9.67;56.99
42603;BME280;28233;55.748;48.752;2024-02-26T01:45:14;101485.91;;;-9.67;56.88
42603;BME280;28233;55.748;48.752;2024-02-26T01:47:27;101487.59;;;-9.66;56.44
42603;BME280;28233;55.748;48.752;2024-02-26T01:49:31;101471.22;;;-9.71;57.17
42603;BME280;28233;55.748;48.752;2024-02-26T01:51:35;101480.03;;;-9.70;57.22
42603;BME280;28233;55.748;48.752;2024-02-26T01:53:38;101491.22;;;-9.67;57.17
42603;BME280;28233;55.748;48.752;2024-02-26T01:55:41;101492.22;;;-9.68;57.11
42603;BME280;28233;55.748;48.752;2024-02-26T01:57:45;101487.84;;;-9.69;56.00
42603;BME280;28233;55.748;48.752;2024-02-26T01:59:50;101457.91;;;-9.90;55.49
42603;BME280;28233;55.748;48.752;2024-02-26T02:01:55;101477.38;;;-9.70;56.42
42603;BME280;28233;55.748;48.752;2024-02-26T02:04:00;101491.50;;;-9.70;55.67
42603;BME280;28233;55.748;48.752;2024-02-26T02:06:03;101480.88;;;-9.70;55.95
42603;BME280;28233;55.748;48.752;2024-02-26T02:08:07;101481.00;;;-9.71;54.16
42603;BME280;28233;55.748;48.752;2024-02-26T02:10:10;101475.00;;;-9.73;54.11
42603;BME280;28233;55.748;48.752;2024-02-26T02:12:12;101475.16;;;-9.75;54.57
42603;BME280;28233;55.748;48.752;2024-02-26T02:14:15;101484.78;;;-9.74;53.92
42603;BME280;28233;55.748;48.752;2024-02-26T02:16:18;101487.44;;;-9.74;54.21
42603;BME280;28233;55.748;48.752;2024-02-26T02:18:24;101475.00;;;-9.73;54.34
42603;BME280;28233;55.748;48.752;2024-02-26T02:20:34;101473.59;;;-9.77;55.23
42603;BME280;28233;55.748;48.752;2024-02-26T02:22:38;101472.91;;;-9.80;55.22
42603;BME280;28233;55.748;48.752;2024-02-26T02:24:41;101456.78;;;-9.88;55.75
42603;BME280;28233;55.748;48.752;2024-02-26T02:26:43;101475.84;;;-9.83;55.64
42603;BME280;28233;55.748;48.752;2024-02-26T02:28:46;101464.63;;;-9.86;54.74
42603;BME280;28233;55.748;48.752;2024-02-26T02:30:50;101472.09;;;-9.90;54.55
42603;BME280;28233;55.748;48.752;2024-02-26T02:32:53;101466.59;;;-9.88;56.01
42603;BME280;28233;55.748;48.752;2024-02-26T02:34:57;101458.22;;;-9.93;55.13
42603;BME280;28233;55.748;48.752;2024-02-26T02:37:00;101456.38;;;-9.93;54.88
42603;BME280;28233;55.748;48.752;2024-02-26T02:39:03;101457.22;;;-9.92;54.76
42603;BME280;28233;55.748;48.752;2024-02-26T02:41:06;101452.19;;;-9.95;54.97
42603;BME280;28233;55.748;48.752;2024-02-26T02:43:08;101460.88;;;-9.93;55.34
42603;BME280;28233;55.748;48.752;2024-02-26T02:45:11;101448.00;;;-9.98;55.49
42603;BME280;28233;55.748;48.752;2024-02-26T02:47:13;101456.81;;;-9.97;54.79
42603;BME280;28233;55.748;48.752;2024-02-26T02:49:16;101452.31;;;-9.97;54.88
42603;BME280;28233;55.748;48.752;2024-02-26T02:51:19;101458.34;;;-9.95;54.56
42603;BME280;28233;55.748;48.752;2024-02-26T02:53:22;101441.97;;;-10.00;53.74
42603;BME280;28233;55.748;48.752;2024-02-26T02:55:24;101452.31;;;-9.97;54.47
42603;BME280;28233;55.748;48.752;2024-02-26T02:57:27;101451.34;;;-10.06;53.24
42603;BME280;28233;55.748;48.752;2024-02-26T02:59:30;101455.13;;;-10.08;52.08
42603;BME280;28233;55.748;48.752;2024-02-26T03:01:32;101445.63;;;-10.11;53.12
42603;BME280;28233;55.748;48.752;2024-02-26T03:03:35;101449.41;;;-10.13;53.19
42603;BME280;28233;55.748;48.752;2024-02-26T03:05:39;101437.38;;;-10.17;53.04
42603;BME280;28233;55.748;48.752;2024-02-26T03:07:41;101447.28;;;-10.19;53.86
42603;BME280;28233;55.748;48.752;2024-02-26T03:09:44;101444.91;;;-10.23;53.56
42603;BME280;28233;55.748;48.752;2024-02-26T03:11:47;101427.56;;;-10.27;53.83
42603;BME280;28233;55.748;48.752;2024-02-26T03:13:49;101422.97;;;-10.34;51.13
42603;BME280;28233;55.748;48.752;2024-02-26T03:15:52;101422.41;;;-10.38;51.21
42603;BME280;28233;55.748;48.752;2024-02-26T03:17:54;101436.28;;;-10.34;52.05
42603;BME280;28233;55.748;48.752;2024-02-26T03:19:57;101429.41;;;-10.37;52.27
42603;BME280;28233;55.748;48.752;2024-02-26T03:22:00;101433.88;;;-10.37;52.90
42603;BME280;28233;55.748;48.752;2024-02-26T03:24:02;101438.88;;;-10.44;52.60
42603;BME280;28233;55.748;48.752;2024-02-26T03:26:05;101427.84;;;-10.49;52.49
42603;BME280;28233;55.748;48.752;2024-02-26T03:28:08;101435.81;;;-10.49;52.09
42603;BME280;28233;55.748;48.752;2024-02-26T03:30:10;101433.00;;;-10.57;52.40
42603;BME280;28233;55.748;48.752;2024-02-26T03:32:13;101435.25;;;-10.62;50.85
42603;BME280;28233;55.748;48.752;2024-02-26T03:34:16;101435.25;;;-10.62;52.10
42603;BME280;28233;55.748;48.752;2024-02-26T03:36:20;101432.84;;;-10.66;52.54
42603;BME280;28233;55.748;48.752;2024-02-26T03:38:24;101452.56;;;-10.68;53.39
42603;BME280;28233;55.748;48.752;2024-02-26T03:40:26;101446.41;;;-10.69;53.66
42603;BME280;28233;55.748;48.752;2024-02-26T03:42:29;101443.31;;;-10.74;54.16
42603;BME280;28233;55.748;48.752;2024-02-26T03:44:31;101443.44;;;-10.75;54.32
42603;BME280;28233;55.748;48.752;2024-02-26T03:46:34;101444.44;;;-10.76;54.24
42603;BME280;28233;55.748;48.752;2024-02-26T03:48:37;101443.59;;;-10.77;54.64
42603;BME280;28233;55.748;48.752;2024-02-26T03:50:40;101443.16;;;-10.82;54.02
42603;BME280;28233;55.748;48.752;2024-02-26T03:52:43;101446.38;;;-10.78;54.73
42603;BME280;28233;55.748;48.752;2024-02-26T03:54:45;101433.09;;;-10.78;54.60
42603;BME280;28233;55.748;48.752;2024-02-26T03:56:48;101452.53;;;-10.78;54.96
42603;BME280;28233;55.748;48.752;2024-02-26T03:58:51;101444.28;;;-10.75;54.38
42603;BME280;28233;55.748;48.752;2024-02-26T04:00:53;101453.25;;;-10.76;53.38
42603;BME280;28233;55.748;48.752;2024-02-26T04:02:56;101444.28;;;-10.75;53.63
42603;BME280;28233;55.748;48.752;2024-02-26T04:04:59;101448.63;;;-10.74;53.12
42603;BME280;28233;55.748;48.752;2024-02-26T04:07:02;101446.81;;;-10.73;52.61
42603;BME280;28233;55.748;48.752;2024-02-26T04:09:05;101454.78;;;-10.73;52.84
42603;BME280;28233;55.748;48.752;2024-02-26T04:11:08;101455.50;;;-10.71;53.11
42603;BME280;28233;55.748;48.752;2024-02-26T04:13:10;101455.38;;;-10.70;52.81
42603;BME280;28233;55.748;48.752;2024-02-26T04:15:13;101454.38;;;-10.69;52.67
42603;BME280;28233;55.748;48.752;2024-02-26T04:17:15;101457.75;;;-10.67;53.14
42603;BME280;28233;55.748;48.752;2024-02-26T04:19:18;101457.47;;;-10.64;51.68
42603;BME280;28233;55.748;48.752;2024-02-26T04:21:21;101454.13;;;-10.56;52.42
42603;BME280;28233;55.748;48.752;2024-02-26T04:23:24;101458.19;;;-10.52;51.90
42603;BME280;28233;55.748;48.752;2024-02-26T04:25:27;101450.91;;;-10.50;52.57
42603;BME280;28233;55.748;48.752;2024-02-26T04:27:31;101460.44;;;-10.47;52.98
42603;BME280;28233;55.748;48.752;2024-02-26T04:29:33;101454.84;;;-10.44;52.42
42603;BME280;28233;55.748;48.752;2024-02-26T04:31:37;101462.69;;;-10.43;52.95
42603;BME280;28233;55.748;48.752;2024-02-26T04:33:41;101466.03;;;-10.40;52.00
42603;BME280;28233;55.748;48.752;2024-02-26T04:35:44;101456.00;;;-10.37;52.48
42603;BME280;28233;55.748;48.752;2024-02-26T04:37:47;101458.66;;;-10.37;51.58
42603;BME280;28233;55.748;48.752;2024-02-26T04:39:50;101460.75;;;-10.31;52.60
42603;BME280;28233;55.748;48.752;2024-02-26T04:41:52;101463.25;;;-10.29;50.83
42603;BME280;28233;55.748;48.752;2024-02-26T04:43:55;101467.97;;;-10.23;50.28
42603;BME280;28233;55.748;48.752;2024-02-26T04:45:57;101468.13;;;-10.25;50.24
42603;BME280;28233;55.748;48.752;2024-02-26T04:48:00;101467.72;;;-10.20;49.45
42603;BME280;28233;55.748;48.752;2024-02-26T04:50:03;101473.59;;;-10.16;49.75
42603;BME280;28233;55.748;48.752;2024-02-26T04:52:06;101468.28;;;-10.16;50.63
42603;BME280;28233;55.748;48.752;2024-02-26T04:54:09;101475.53;;;-10.09;51.31
42603;BME280;28233;55.748;48.752;2024-02-26T04:56:12;101490.13;;;-10.03;51.13
42603;BME280;28233;55.748;48.752;2024-02-26T04:58:15;101485.22;;;-9.98;52.58
42603;BME280;28233;55.748;48.752;2024-02-26T05:00:17;101489.28;;;-9.94;52.50
42603;BME280;28233;55.748;48.752;2024-02-26T05:02:20;101486.22;;;-9.89;52.29
42603;BME280;28233;55.748;48.752;2024-02-26T05:04:23;101476.53;;;-9.90;52.32
42603;BME280;28233;55.748;48.752;2024-02-26T05:06:26;101490.00;;;-9.82;51.37
42603;BME280;28233;55.748;48.752;2024-02-26T05:08:28;101485.22;;;-9.79;52.27
42603;BME280;28233;55.748;48.752;2024-02-26T05:10:33;101478.94;;;-9.77;51.81
42603;BME280;28233;55.748;48.752;2024-02-26T05:12:36;101485.91;;;-9.76;48.95
42603;BME280;28233;55.748;48.752;2024-02-26T05:14:39;101493.47;;;-9.72;50.81
42603;BME280;28233;55.748;48.752;2024-02-26T05:16:41;101493.06;;;-9.67;51.41
42603;BME280;28233;55.748;48.752;2024-02-26T05:18:44;101487.44;;;-9.64;51.84
42603;BME280;28233;55.748;48.752;2024-02-26T05:20:47;101497.81;;;-9.61;51.52
42603;BME280;28233;55.748;48.752;2024-02-26T05:22:50;101491.06;;;-9.55;52.03
42603;BME280;28233;55.748;48.752;2024-02-26T05:24:53;101499.06;;;-9.55;51.80
42603;BME280;28233;55.748;48.752;2024-02-26T05:26:56;101495.28;;;-9.53;51.33
42603;BME280;28233;55.748;48.752;2024-02-26T05:28:58;101496.38;;;-9.46;51.75
42603;BME280;28233;55.748;48.752;2024-02-26T05:31:02;101486.56;;;-9.45;50.99
42603;BME280;28233;55.748;48.752;2024-02-26T05:33:05;101492.34;;;-9.40;51.45
42603;BME280;28233;55.748;48.752;2024-02-26T05:35:08;101486.28;;;-9.32;51.88
42603;BME280;28233;55.748;48.752;2024-02-26T05:37:11;101491.31;;;-9.29;50.69
42603;BME280;28233;55.748;48.752;2024-02-26T05:39:13;101479.44;;;-9.35;50.54
42603;BME280;28233;55.748;48.752;2024-02-26T05:41:20;101482.75;;;-9.23;50.87
42603;BME280;28233;55.748;48.752;2024-02-26T05:43:29;101497.59;;;-9.21;51.06
42603;BME280;28233;55.748;48.752;2024-02-26T05:45:31;101492.28;;;-9.21;50.14
42603;BME280;28233;55.748;48.752;2024-02-26T05:47:35;101466.66;;;-9.31;50.16
42603;BME280;28233;55.748;48.752;2024-02-26T05:49:37;101498.56;;;-9.12;50.06
42603;BME280;28233;55.748;48.752;2024-02-26T05:51:40;101489.97;;;-9.06;51.02
42603;BME280;28233;55.748;48.752;2024-02-26T05:53:43;101487.59;;;-8.99;49.61
42603;BME280;28233;55.748;48.752;2024-02-26T05:55:46;101495.84;;;-8.93;49.22
42603;BME280;28233;55.748;48.752;2024-02-26T05:57:48;101493.16;;;-8.93;50.14
42603;BME280;28233;55.748;48.752;2024-02-26T05:59:52;101495.41;;;-8.88;49.80
42603;BME280;28233;55.748;48.752;2024-02-26T06:01:54;101496.94;;;-8.85;50.40
42603;BME280;28233;55.748;48.752;2024-02-26T06:03:57;101492.28;;;-8.83;49.64
42603;BME280;28233;55.748;48.752;2024-02-26T06:05:59;101506.16;;;-8.80;50.49
42603;BME280;28233;55.748;48.752;2024-02-26T06:08:02;101503.03;;;-8.75;51.11
42603;BME280;28233;55.748;48.752;2024-02-26T06:10:05;101494.78;;;-8.72;51.33
42603;BME280;28233;55.748;48.752;2024-02-26T06:12:08;101505.28;;;-8.70;49.97
42603;BME280;28233;55.748;48.752;2024-02-26T06:14:11;101504.13;;;-8.58;50.54
42603;BME280;28233;55.748;48.752;2024-02-26T06:16:15;101501.97;;;-8.55;49.96
42603;BME280;28233;55.748;48.752;2024-02-26T06:18:17;101502.22;;;-8.48;50.04
42603;BME280;28233;55.748;48.752;2024-02-26T06:20:20;101507.94;;;-8.43;49.11
42603;BME280;28233;55.748;48.752;2024-02-26T06:22:23;101501.13;;;-8.37;49.93
42603;BME280;28233;55.748;48.752;2024-02-26T06:24:25;101502.91;;;-8.28;49.85
42603;BME280;28233;55.748;48.752;2024-02-26T06:26:28;101500.66;;;-8.23;50.37
42603;BME280;28233;55.748;48.752;2024-02-26T06:28:31;101507.19;;;-8.17;49.84
42603;BME280;28233;55.748;48.752;2024-02-26T06:30:36;101497.47;;;-8.09;49.42
42603;BME280;28233;55.748;48.752;2024-02-26T06:32:38;101499.69;;;-8.04;50.11
42603;BME280;28233;55.748;48.752;2024-02-26T06:34:41;101496.94;;;-7.94;49.69
42603;BME280;28233;55.748;48.752;2024-02-26T06:36:44;101498.69;;;-7.85;50.77
42603;BME280;28233;55.748;48.752;2024-02-26T06:38:47;101507.75;;;-7.78;50.45
42603;BME280;28233;55.748;48.752;2024-02-26T06:40:49;101497.31;;;-7.71;50.69
42603;BME280;28233;55.748;48.752;2024-02-26T06:42:52;101489.69;;;-7.66;51.04
42603;BME280;28233;55.748;48.752;2024-02-26T06:44:54;101501.25;;;-7.57;50.35
42603;BME280;28233;55.748;48.752;2024-02-26T06:47:00;101495.44;;;-7.53;49.96
42603;BME280;28233;55.748;48.752;2024-02-26T06:49:03;101493.53;;;-7.42;50.33
42603;BME280;28233;55.748;48.752;2024-02-26T06:51:06;101500.75;;;-7.35;50.95
42603;BME280;28233;55.748;48.752;2024-02-26T06:53:09;101504.03;;;-7.23;50.30
42603;BME280;28233;55.748;48.752;2024-02-26T06:55:11;101506.72;;;-7.15;49.08
42603;BME280;28233;55.748;48.752;2024-02-26T06:57:14;101502.47;;;-7.08;48.62
42603;BME280;28233;55.748;48.752;2024-02-26T06:59:16;101508.31;;;-7.04;49.29
42603;BME280;28233;55.748;48.752;2024-02-26T07:01:19;101482.06;;;-7.09;48.80
42603;BME280;28233;55.748;48.752;2024-02-26T07:03:22;101494.84;;;-6.94;48.66
42603;BME280;28233;55.748;48.752;2024-02-26T07:05:28;101502.72;;;-6.93;49.11
42603;BME280;28233;55.748;48.752;2024-02-26T07:07:31;101498.72;;;-6.89;48.49
42603;BME280;28233;55.748;48.752;2024-02-26T07:09:33;101487.56;;;-6.84;49.01
42603;BME280;28233;55.748;48.752;2024-02-26T07:11:36;101496.09;;;-6.81;49.42
42603;BME280;28233;55.748;48.752;2024-02-26T07:13:38;101492.09;;;-6.76;49.13
42603;BME280;28233;55.748;48.752;2024-02-26T07:15:41;101498.97;;;-6.74;48.70
42603;BME280;28233;55.748;48.752;2024-02-26T07:17:44;101492.78;;;-6.74;48.32
42603;BME280;28233;55.748;48.752;2024-02-26T07:19:50;101488.13;;;-6.72;47.99
42603;BME280;28233;55.748;48.752;2024-02-26T07:21:52;101490.47;;;-6.69;47.75
42603;BME280;28233;55.748;48.752;2024-02-26T07:23:55;101501.28;;;-6.79;47.25
42603;BME280;28233;55.748;48.752;2024-02-26T07:25:59;101493.97;;;-6.69;48.74
42603;BME280;28233;55.748;48.752;2024-02-26T07:28:01;101488.16;;;-6.64;49.02
42603;BME280;28233;55.748;48.752;2024-02-26T07:30:05;101494.84;;;-6.60;48.99
42603;BME280;28233;55.748;48.752;2024-02-26T07:32:07;101495.19;;;-6.55;48.90
42603;BME280;28233;55.748;48.752;2024-02-26T07:34:10;101492.69;;;-6.56;47.46
42603;BME280;28233;55.748;48.752;2024-02-26T07:36:13;101488.69;;;-6.61;47.29
42603;BME280;28233;55.748;48.752;2024-02-26T07:38:16;101486.31;;;-6.64;44.87
42603;BME280;28233;55.748;48.752;2024-02-26T07:40:33;101483.50;;;-6.54;47.51
42603;BME280;28233;55.748;48.752;2024-02-26T07:42:35;101480.88;;;-6.46;47.68
42603;BME280;28233;55.748;48.752;2024-02-26T07:44:38;101481.75;;;-6.37;48.64
42603;BME280;28233;55.748;48.752;2024-02-26T07:46:45;101478.41;;;-6.31;49.14
42603;BME280;28233;55.748;48.752;2024-02-26T07:48:47;101480.09;;;-6.30;48.69
42603;BME280;28233;55.748;48.752;2024-02-26T07:50:51;101484.63;;;-6.22;49.07
42603;BME280;28233;55.748;48.752;2024-02-26T07:52:53;101480.28;;;-6.15;49.23
42603;BME280;28233;55.748;48.752;2024-02-26T07:54:56;101487.47;;;-6.07;50.17
42603;BME280;28233;55.748;48.752;2024-02-26T07:56:59;101476.97;;;-6.01;49.83
42603;BME280;28233;55.748;48.752;2024-02-26T07:59:02;101477.63;;;-5.99;47.68
42603;BME280;28233;55.748;48.752;2024-02-26T08:01:04;101480.28;;;-5.90;48.18
42603;BME280;28233;55.748;48.752;2024-02-26T08:03:07;101475.94;;;-5.83;48.38
42603;BME280;28233;55.748;48.752;2024-02-26T08:05:10;101479.97;;;-5.79;48.30
42603;BME280;28233;55.748;48.752;2024-02-26T08:07:13;101480.63;;;-5.77;47.34
42603;BME280;28233;55.748;48.752;2024-02-26T08:09:17;101471.63;;;-5.76;46.47
42603;BME280;28233;55.748;48.752;2024-02-26T08:11:20;101491.19;;;-5.76;46.02
42603;BME280;28233;55.748;48.752;2024-02-26T08:13:22;101488.69;;;-5.69;46.84
42603;BME280;28233;55.748;48.752;2024-02-26T08:15:25;101486.34;;;-5.64;47.70
42603;BME280;28233;55.748;48.752;2024-02-26T08:17:28;101486.34;;;-5.64;46.60
42603;BME280;28233;55.748;48.752;2024-02-26T08:19:31;101485.34;;;-5.55;47.61
42603;BME280;28233;55.748;48.752;2024-02-26T08:21:33;101482.31;;;-5.52;46.71
42603;BME280;28233;55.748;48.752;2024-02-26T08:23:37;101480.31;;;-5.49;46.37
42603;BME280;28233;55.748;48.752;2024-02-26T08:25:39;101484.16;;;-5.44;46.18
42603;BME280;28233;55.748;48.752;2024-02-26T08:27:42;101483.47;;;-5.38;46.63
42603;BME280;28233;55.748;48.752;2024-02-26T08:29:45;101487.50;;;-5.34;45.95
42603;BME280;28233;55.748;48.752;2024-02-26T08:31:47;101486.66;;;-5.26;45.32
42603;BME280;28233;55.748;48.752;2024-02-26T08:33:51;101486.63;;;-5.18;44.69
42603;BME280;28233;55.748;48.752;2024-02-26T08:35:54;101485.97;;;-5.12;45.13
42603;BME280;28233;55.748;48.752;2024-02-26T08:37:56;101483.59;;;-5.06;44.84
42603;BME280;28233;55.748;48.752;2024-02-26T08:39:59;101479.88;;;-4.97;46.28
42603;BME280;28233;55.748;48.752;2024-02-26T08:42:07;101486.44;;;-5.00;44.25
42603;BME280;28233;55.748;48.752;2024-02-26T08:44:10;101477.53;;;-4.92;45.94
42603;BME280;28233;55.748;48.752;2024-02-26T08:46:13;101477.00;;;-4.88;45.31
42603;BME280;28233;55.748;48.752;2024-02-26T08:48:16;101480.03;;;-4.91;44.91
42603;BME280;28233;55.748;48.752;2024-02-26T08:50:18;101481.38;;;-4.86;44.31
42603;BME280;28233;55.748;48.752;2024-02-26T08:52:21;101470.69;;;-5.03;43.18
42603;BME280;28233;55.748;48.752;2024-02-26T08:54:24;101476.69;;;-4.93;45.69
42603;BME280;28233;55.748;48.752;2024-02-26T08:56:26;101479.69;;;-4.88;44.24
42603;BME280;28233;55.748;48.752;2024-02-26T08:58:30;101471.97;;;-4.82;44.83
42603;BME280;28233;55.748;48.752;2024-02-26T09:00:33;101472.63;;;-4.72;44.66
42603;BME280;28233;55.748;48.752;2024-02-26T09:02:36;101472.75;;;-4.65;44.53
42603;BME280;28233;55.748;48.752;2024-02-26T09:04:41;101473.75;;;-4.67;43.06
42603;BME280;28233;55.748;48.752;2024-02-26T09:06:43;101476.13;;;-4.72;44.30
42603;BME280;28233;55.748;48.752;2024-02-26T09:08:46;101474.28;;;-4.71;44.62
42603;BME280;28233;55.748;48.752;2024-02-26T09:10:49;101473.44;;;-4.72;44.50
42603;BME280;28233;55.748;48.752;2024-02-26T09:12:52;101477.47;;;-4.68;44.51
42603;BME280;28233;55.748;48.752;2024-02-26T09:14:56;101467.03;;;-4.62;44.19
42603;BME280;28233;55.748;48.752;2024-02-26T09:17:00;101460.78;;;-4.55;44.64
42603;BME280;28233;55.748;48.752;2024-02-26T09:19:02;101469.16;;;-4.50;43.82
42603;BME280;28233;55.748;48.752;2024-02-26T09:21:05;101454.38;;;-4.46;44.29
42603;BME280;28233;55.748;48.752;2024-02-26T09:23:09;101463.25;;;-4.45;44.79
42603;BME280;28233;55.748;48.752;2024-02-26T09:25:12;101453.84;;;-4.41;45.18
42603;BME280;28233;55.748;48.752;2024-02-26T09:27:15;101461.03;;;-4.33;44.83
42603;BME280;28233;55.748;48.752;2024-02-26T09:29:17;101460.78;;;-4.23;44.30
42603;BME280;28233;55.748;48.752;2024-02-26T09:31:20;101454.63;;;-4.01;45.12
42603;BME280;28233;55.748;48.752;2024-02-26T09:33:23;101457.97;;;-3.76;44.22
42603;BME280;28233;55.748;48.752;2024-02-26T09:35:26;101459.44;;;-3.50;44.36
42603;BME280;28233;55.748;48.752;2024-02-26T09:37:29;101467.81;;;-3.30;42.36
42603;BME280;28233;55.748;48.752;2024-02-26T09:39:31;101466.28;;;-3.10;44.65
42603;BME280;28233;55.748;48.752;2024-02-26T09:41:34;101465.56;;;-2.89;43.11
42603;BME280;28233;55.748;48.752;2024-02-26T09:43:38;101464.50;;;-2.88;41.93
42603;BME280;28233;55.748;48.752;2024-02-26T09:45:44;101463.69;;;-2.88;41.49
42603;BME280;28233;55.748;48.752;2024-02-26T09:47:48;101470.44;;;-2.78;42.85
42603;BME280;28233;55.748;48.752;2024-02-26T09:49:52;101469.63;;;-2.63;42.05
42603;BME280;28233;55.748;48.752;2024-02-26T09:51:56;101470.13;;;-2.38;44.09
42603;BME280;28233;55.748;48.752;2024-02-26T09:54:01;101472.47;;;-2.35;42.75
42603;BME280;28233;55.748;48.752;2024-02-26T09:56:07;101458.88;;;-2.27;43.22
42603;BME280;28233;55.748;48.752;2024-02-26T09:58:10;101465.88;;;-2.32;41.51
42603;BME280;28233;55.748;48.752;2024-02-26T10:00:17;101466.56;;;-2.24;43.37
42603;BME280;28233;55.748;48.752;2024-02-26T10:02:22;101460.94;;;-2.29;42.02
42603;BME280;28233;55.748;48.752;2024-02-26T10:04:25;101446.38;;;-2.35;42.48
42603;BME280;28233;55.748;48.752;2024-02-26T10:06:28;101451.09;;;-2.37;42.68
42603;BME280;28233;55.748;48.752;2024-02-26T10:08:32;101458.34;;;-2.37;42.72
42603;BME280;28233;55.748;48.752;2024-02-26T10:10:36;101457.22;;;-2.43;42.93
42603;BME280;28233;55.748;48.752;2024-02-26T10:12:40;101461.53;;;-2.48;43.26
42603;BME280;28233;55.748;48.752;2024-02-26T10:14:42;101456.59;;;-2.45;44.18
42603;BME280;28233;55.748;48.752;2024-02-26T10:16:45;101449.25;;;-2.36;43.33
42603;BME280;28233;55.748;48.752;2024-02-26T10:18:49;101454.63;;;-2.36;42.20
42603;BME280;28233;55.748;48.752;2024-02-26T10:21:01;101457.16;;;-2.35;42.36
42603;BME280;28233;55.748;48.752;2024-02-26T10:23:05;101454.06;;;-2.31;43.06
42603;BME280;28233;55.748;48.752;2024-02-26T10:25:08;101448.50;;;-2.30;42.86
42603;BME280;28233;55.748;48.752;2024-02-26T10:27:10;101453.97;;;-2.38;42.43
42603;BME280;28233;55.748;48.752;2024-02-26T10:29:13;101452.88;;;-2.44;43.05
42603;BME280;28233;55.748;48.752;2024-02-26T10:31:16;101443.78;;;-2.43;42.73
42603;BME280;28233;55.748;48.752;2024-02-26T10:33:18;101442.78;;;-2.42;42.63